Time;durP1;ratioP1;P1;durP2;ratioP2;P2;SDS_P1;SDS_P2;PMS_P1;PMS_P2;Temp;Humidity;BMP_temperature;BMP_pressure;BME280_temperature;BME280_humidity;BME280_pressure;Samples;Min_cycle;Max_cycle;Signal;HPM_P1;HPM_P2
2021/06/21 00:01:41;;;;;;;18.23;8.85;;;;;;;20.06;71.89;98498.47;4043605;86;21595;-80
2021/06/21 00:08:01;;;;;;;18.17;10.75;;;;;;;19.88;72.37;98505.86;4038381;86;21537;-81
2021/06/21 00:14:03;;;;;;;12.98;8.75;;;;;;;19.77;72.87;98497.89;4046011;86;21058;-79
2021/06/21 00:20:06;;;;;;;9.55;7.65;;;;;;;19.60;73.11;98491.53;4044913;86;21473;-79
2021/06/21 00:26:08;;;;;;;12.53;8.48;;;;;;;19.44;73.63;98477.18;4043949;86;21087;-80
2021/06/21 00:32:09;;;;;;;11.28;8.28;;;;;;;19.36;73.87;98468.91;4038909;86;21089;-79
2021/06/21 00:38:11;;;;;;;9.85;7.75;;;;;;;19.28;74.21;98463.42;4044386;86;21048;-80
2021/06/21 00:44:12;;;;;;;13.00;9.80;;;;;;;19.34;74.54;98453.95;4034690;86;21063;-80
2021/06/21 00:50:14;;;;;;;10.60;8.63;;;;;;;19.35;74.83;98449.33;4046849;86;21051;-80
2021/06/21 00:56:16;;;;;;;9.38;8.08;;;;;;;19.42;75.16;98449.72;4043055;86;21114;-79
2021/06/21 01:02:21;;;;;;;8.88;7.40;;;;;;;19.45;74.80;98441.25;4045067;86;21031;-80
2021/06/21 01:08:21;;;;;;;10.53;8.30;;;;;;;19.22;75.07;98435.26;4042008;86;21094;-79
2021/06/21 01:14:34;;;;;;;12.47;9.48;;;;;;;19.07;75.31;98421.09;4045991;86;21124;-79
2021/06/21 01:21:10;;;;;;;12.98;7.53;;;;;;;18.96;75.61;98409.55;4041934;86;21087;-79
2021/06/21 01:27:52;;;;;;;10.38;8.00;;;;;;;18.86;76.04;98407.09;3946064;89;21096;-77
2021/06/21 01:33:54;;;;;;;12.03;7.28;;;;;;;18.77;76.48;98392.52;3915638;89;21101;-80
2021/06/21 01:39:58;;;;;;;10.82;8.15;;;;;;;18.84;77.02;98395.69;3926006;89;21590;-79
2021/06/21 01:46:04;;;;;;;10.85;7.58;;;;;;;19.10;76.97;98402.77;3921087;89;21130;-78
2021/06/21 01:52:10;;;;;;;10.63;7.80;;;;;;;19.09;76.78;98396.43;3922514;89;21121;-79
2021/06/21 01:58:13;;;;;;;9.13;8.17;;;;;;;19.08;76.87;98385.18;3927570;89;21416;-80
2021/06/21 02:04:15;;;;;;;12.88;9.58;;;;;;;18.85;76.97;98383.36;3938817;89;21093;-80
2021/06/21 02:10:19;;;;;;;20.30;10.35;;;;;;;18.61;77.31;98388.46;4043971;86;21049;-79
2021/06/21 02:16:22;;;;;;;11.35;8.30;;;;;;;18.42;77.72;98373.59;4039450;86;21599;-79
2021/06/21 02:22:28;;;;;;;12.15;7.35;;;;;;;18.33;78.17;98359.59;4042520;86;21047;-80
2021/06/21 02:28:29;;;;;;;11.18;6.92;;;;;;;18.35;78.39;98351.59;4042343;86;21630;-80
2021/06/21 02:34:31;;;;;;;11.40;8.70;;;;;;;18.48;78.60;98348.27;4039782;86;21628;-80
2021/06/21 02:40:32;;;;;;;13.13;7.83;;;;;;;18.33;78.58;98362.36;4042704;86;21020;-81
2021/06/21 02:46:34;;;;;;;9.73;7.40;;;;;;;18.25;79.02;98354.69;4047137;86;21641;-80
2021/06/21 02:53:02;;;;;;;9.78;6.92;;;;;;;18.25;79.31;98349.15;4038924;86;21114;-79
2021/06/21 02:59:08;;;;;;;9.50;7.30;;;;;;;18.34;79.68;98356.98;4041802;86;21132;-80
2021/06/21 03:05:11;;;;;;;12.70;9.00;;;;;;;18.70;79.66;98369.16;4043231;86;21056;-80
2021/06/21 03:11:18;;;;;;;14.83;8.10;;;;;;;18.65;79.28;98367.72;4046348;86;21110;-79
2021/06/21 03:17:20;;;;;;;12.30;6.53;;;;;;;18.57;79.55;98370.55;4041988;86;21094;-78
2021/06/21 03:23:25;;;;;;;11.00;8.80;;;;;;;18.81;79.55;98381.33;4043423;86;21500;-78
2021/06/21 03:29:27;;;;;;;12.58;8.45;;;;;;;18.80;79.42;98374.20;4041102;86;21801;-78
2021/06/21 03:35:28;;;;;;;10.23;7.65;;;;;;;18.63;79.49;98378.50;3942685;89;21570;-77
2021/06/21 03:41:30;;;;;;;13.35;8.03;;;;;;;18.46;79.63;98391.50;4040417;86;21508;-81
2021/06/21 03:47:32;;;;;;;9.95;7.65;;;;;;;18.42;80.14;98379.13;4044534;86;21068;-78
2021/06/21 03:53:40;;;;;;;17.33;9.17;;;;;;;18.46;80.48;98364.55;4029054;85;416622;-80
2021/06/21 04:00:14;;;;;;;12.23;7.50;;;;;;;18.59;80.81;98371.48;4101992;84;21508;-79
2021/06/21 04:06:24;;;;;;;10.08;7.55;;;;;;;18.74;80.92;98369.22;4117261;83;21120;-77
2021/06/21 04:12:34;;;;;;;8.68;7.78;;;;;;;18.91;80.89;98374.05;4083506;85;21571;-78
2021/06/21 04:18:42;;;;;;;10.85;8.73;;;;;;;19.05;81.17;98371.42;4083532;85;21079;-79
2021/06/21 04:25:04;;;;;;;10.68;6.78;;;;;;;19.26;81.21;98377.67;4074312;85;21028;-79
2021/06/21 04:31:53;;;;;;;;;;;;;;;19.46;81.23;98390.69;4074394;85;21068;-78
2021/06/21 04:37:21;;;;;;;11.43;7.30;;;;;;;19.67;81.20;98387.20;4068409;85;20116;-80
2021/06/21 04:43:42;;;;;;;10.80;7.75;;;;;;;19.83;81.13;98392.55;4070917;85;21076;-79
2021/06/21 04:50:12;;;;;;;;;;;;;;;;;;;;;
2021/06/21 04:56:12;;;;;;;12.85;7.30;;;;;;;20.17;81.16;98380.80;4058629;85;21007;-79
2021/06/21 05:02:33;;;;;;;12.43;7.55;;;;;;;20.39;81.10;98398.09;4062361;85;20983;-79
2021/06/21 05:09:10;;;;;;;;;;;;;;;;;;;;;
2021/06/21 05:15:15;;;;;;;12.35;7.97;;;;;;;20.82;80.91;98396.60;4016435;87;21984;-76
2021/06/21 05:21:26;;;;;;;12.75;8.50;;;;;;;21.03;80.64;98402.11;4023515;87;21036;-78
2021/06/21 05:27:26;;;;;;;13.48;7.40;;;;;;;21.24;80.39;98403.27;4023833;87;21099;-79
2021/06/21 05:33:43;;;;;;;11.38;7.33;;;;;;;21.48;80.21;98416.18;4026098;87;21087;-79
2021/06/21 05:40:03;;;;;;;12.73;7.58;;;;;;;21.69;79.95;98413.09;4026506;87;21079;-79
2021/06/21 05:46:06;;;;;;;10.25;8.40;;;;;;;21.89;79.58;98398.14;4026669;87;21056;-80
2021/06/21 05:52:10;;;;;;;14.75;7.45;;;;;;;22.03;79.25;98391.16;4025107;87;21099;-78
2021/06/21 05:58:15;;;;;;;10.63;7.60;;;;;;;22.21;79.12;98390.52;3942841;88;21083;-80
2021/06/21 06:04:23;;;;;;;10.73;7.23;;;;;;;22.39;78.96;98375.77;4033117;86;21087;-79
2021/06/21 06:10:32;;;;;;;10.80;7.80;;;;;;;22.59;78.69;98375.44;4063774;85;21044;-79
2021/06/21 06:16:42;;;;;;;10.05;6.55;;;;;;;22.80;78.07;98385.58;4092266;85;21059;-78
2021/06/21 06:22:47;;;;;;;8.58;6.37;;;;;;;22.96;77.81;98380.23;4111433;83;21044;-79
2021/06/21 06:29:01;;;;;;;;;;;;;;;;;;;;;
2021/06/21 06:35:02;;;;;;;14.47;6.50;;;;;;;23.40;77.05;98374.29;4062048;83;21635;-78
2021/06/21 06:41:08;;;;;;;14.53;6.72;;;;;;;23.64;76.56;98378.47;4115782;83;21489;-79
2021/06/21 06:47:19;;;;;;;17.50;6.50;;;;;;;23.90;75.92;98378.13;4101900;85;21005;-79
2021/06/21 06:59:41;;;;;;;15.00;5.85;;;;;;;24.48;74.62;98349.60;4068557;84;21072;-81
2021/06/21 07:05:52;;;;;;;12.90;5.53;;;;;;;24.97;74.07;98357.28;4123805;83;21596;-79
2021/06/21 07:12:09;;;;;;;8.73;5.33;;;;;;;25.53;72.98;98351.83;4112645;83;21139;-79
2021/06/21 07:18:13;;;;;;;11.25;4.85;;;;;;;26.28;72.32;98355.25;4115979;83;21095;-79
2021/06/21 07:24:20;;;;;;;11.18;4.30;;;;;;;26.93;70.92;98354.32;4140067;84;21550;-80
2021/06/21 07:30:32;;;;;;;11.83;4.25;;;;;;;27.57;69.02;98355.87;4130165;83;21044;-78
2021/06/21 07:36:52;;;;;;;13.20;4.00;;;;;;;27.86;66.20;98345.50;4090124;85;23663;-80
2021/06/21 07:42:53;;;;;;;10.48;4.60;;;;;;;28.13;65.74;98337.14;4131528;83;21020;-79
2021/06/21 07:48:55;;;;;;;12.85;4.53;;;;;;;28.29;63.70;98336.41;4123060;85;21083;-81
2021/06/21 07:54:59;;;;;;;12.88;4.08;;;;;;;28.66;62.22;98338.37;4123333;84;21036;-80
2021/06/21 08:01:00;;;;;;;11.00;3.72;;;;;;;28.88;62.57;98341.80;4111025;83;21148;-78
2021/06/21 08:07:04;;;;;;;9.63;3.92;;;;;;;28.91;60.17;98350.00;4115648;85;21066;-79
2021/06/21 08:13:06;;;;;;;14.73;4.45;;;;;;;28.74;59.63;98345.66;4130804;83;21071;-80
2021/06/21 08:19:08;;;;;;;11.00;4.08;;;;;;;28.88;59.10;98336.95;4131372;85;21064;-80
2021/06/21 08:25:10;;;;;;;14.05;4.67;;;;;;;28.96;59.29;98342.19;4146456;85;21063;-78
2021/06/21 08:31:13;;;;;;;13.95;4.30;;;;;;;28.97;58.65;98349.34;4139884;83;21079;-81
2021/06/21 08:37:21;;;;;;;10.78;3.92;;;;;;;28.91;57.53;98342.22;4135659;84;21138;-81
2021/06/21 08:43:32;;;;;;;9.23;3.45;;;;;;;29.01;56.80;98344.88;4123724;85;21493;-80
2021/06/21 08:49:45;;;;;;;12.68;4.12;;;;;;;29.06;56.90;98344.12;4137494;83;21877;-80
2021/06/21 08:55:50;;;;;;;16.23;3.62;;;;;;;28.99;56.23;98341.16;4118753;85;20947;-80
2021/06/21 09:01:52;;;;;;;11.12;3.90;;;;;;;28.93;55.59;98336.81;4180415;85;21023;-79
2021/06/21 09:08:04;;;;;;;13.93;3.22;;;;;;;28.93;55.23;98341.03;4149307;83;21106;-79
2021/06/21 09:14:31;;;;;;;12.23;3.62;;;;;;;29.02;54.98;98335.90;4126750;85;21114;-80
2021/06/21 09:20:33;;;;;;;11.80;3.80;;;;;;;29.09;53.23;98326.19;4165402;82;27405;-80
2021/06/21 09:26:35;;;;;;;7.30;3.22;;;;;;;29.11;53.93;98332.72;4165377;85;21050;-79
2021/06/21 09:32:47;;;;;;;10.23;3.77;;;;;;;29.08;52.10;98330.30;4179432;83;21345;-80
2021/06/21 09:39:29;;;;;;;18.30;4.20;;;;;;;29.31;53.00;98324.72;4185551;85;21081;-79
2021/06/21 09:45:30;;;;;;;10.58;3.67;;;;;;;29.61;52.54;98327.05;4173292;85;21602;-79
2021/06/21 09:51:39;;;;;;;12.93;3.52;;;;;;;29.93;52.08;98325.38;4171712;83;21095;-78
2021/06/21 09:57:41;;;;;;;8.75;3.37;;;;;;;30.16;51.52;98323.20;4166715;85;21046;-80
2021/06/21 10:03:45;;;;;;;7.50;3.55;;;;;;;30.42;50.83;98327.78;4172092;85;21041;-78
2021/06/21 10:09:51;;;;;;;12.03;3.47;;;;;;;30.44;49.84;98314.69;4166955;83;21595;-79
2021/06/21 10:15:53;;;;;;;10.05;3.33;;;;;;;30.67;49.02;98313.06;4118003;84;21774;-80
2021/06/21 10:21:56;;;;;;;11.73;3.67;;;;;;;30.93;48.99;98302.08;4128821;85;21052;-79
2021/06/21 10:28:00;;;;;;;12.73;2.87;;;;;;;31.17;48.29;98305.66;4082338;85;21648;-79
2021/06/21 10:34:07;;;;;;;9.35;2.50;;;;;;;31.31;47.90;98295.25;4133939;84;21144;-84
2021/06/21 10:40:10;;;;;;;11.83;3.10;;;;;;;31.54;47.20;98293.70;4114650;84;21561;-84
2021/06/21 10:46:33;;;;;;;14.28;3.62;;;;;;;31.64;45.90;98295.62;4111432;84;21088;-80
2021/06/21 10:52:55;;;;;;;12.58;3.33;;;;;;;31.87;45.29;98294.04;4118951;84;21139;-84
2021/06/21 10:59:14;;;;;;;11.35;3.00;;;;;;;32.14;43.59;98285.02;4124220;84;21080;-80
2021/06/21 11:05:41;;;;;;;11.85;3.65;;;;;;;32.36;43.95;98265.50;4105578;85;21030;-80
2021/06/21 11:11:51;;;;;;;10.30;3.35;;;;;;;32.51;43.60;98263.75;4113044;83;21045;-81
2021/06/21 11:18:09;;;;;;;13.32;3.12;;;;;;;32.65;41.52;98261.70;4110148;84;21089;-79
2021/06/21 11:24:43;;;;;;;13.70;2.80;;;;;;;32.91;40.88;98259.70;4128304;84;20980;-81
2021/06/21 11:31:17;;;;;;;11.53;2.95;;;;;;;33.07;40.28;98261.45;3993492;86;21130;-79
2021/06/21 11:44:23;;;;;;;;;;;;;;;;;;;;;
2021/06/21 11:50:21;;;;;;;10.35;3.05;;;;;;;33.93;39.49;98236.58;4067283;85;21088;-80
2021/06/21 11:56:25;;;;;;;9.73;2.30;;;;;;;34.03;35.77;98229.12;4108049;85;21072;-81
2021/06/21 12:02:28;;;;;;;11.47;2.97;;;;;;;34.18;37.72;98222.16;4105607;84;21111;-81
2021/06/21 12:08:36;;;;;;;13.75;3.17;;;;;;;34.40;37.93;98221.00;4116215;84;21122;-81
2021/06/21 12:14:44;;;;;;;11.45;2.67;;;;;;;34.18;36.48;98215.06;4133507;84;21071;-81
2021/06/21 12:20:45;;;;;;;10.03;2.47;;;;;;;33.86;35.54;98208.86;4126244;84;21559;-80
2021/06/21 12:26:51;;;;;;;14.80;2.58;;;;;;;33.46;35.73;98206.78;4109959;85;21016;-80
2021/06/21 12:32:59;;;;;;;8.30;2.58;;;;;;;33.11;35.13;98210.84;4106278;85;21047;-80
2021/06/21 12:39:06;;;;;;;8.83;2.62;;;;;;;32.72;35.80;98195.87;4045469;87;21023;-81
2021/06/21 12:45:19;;;;;;;10.75;2.60;;;;;;;32.48;36.21;98191.83;4111100;84;21092;-82
2021/06/21 12:51:25;;;;;;;7.33;2.12;;;;;;;32.15;36.33;98199.45;4057869;85;21039;-80
2021/06/21 13:16:43;;;;;;;5.53;2.50;;;;;;;31.56;37.03;98192.86;4120554;84;21045;-83
2021/06/21 13:23:03;;;;;;;8.83;1.87;;;;;;;31.47;36.35;98181.16;4123634;85;21031;-79
2021/06/21 13:29:32;;;;;;;6.50;2.17;;;;;;;31.43;36.30;98182.13;4119925;85;21081;-80
2021/06/21 13:36:03;;;;;;;4.87;1.80;;;;;;;31.28;36.49;98169.05;4109034;85;21076;-80
2021/06/21 13:43:01;;;;;;;7.58;2.22;;;;;;;31.20;36.93;98163.24;4125305;84;21014;-81
2021/06/21 13:55:35;;;;;;;8.75;2.50;;;;;;;31.05;37.63;98159.34;4085138;84;21560;-79
2021/06/21 14:01:56;;;;;;;3.30;2.08;;;;;;;30.98;38.24;98167.77;4126114;85;21065;-79
2021/06/21 14:08:03;;;;;;;7.67;2.60;;;;;;;30.86;38.38;98164.97;4109916;84;21012;-80
2021/06/21 14:14:05;;;;;;;7.53;2.42;;;;;;;30.70;38.94;98160.91;4104893;85;21474;-78
2021/06/21 14:20:08;;;;;;;5.37;2.33;;;;;;;30.73;39.09;98164.08;4120436;84;21534;-80
2021/06/21 14:26:10;;;;;;;10.72;2.50;;;;;;;30.63;38.99;98157.24;4117077;85;21098;-81
2021/06/21 14:32:12;;;;;;;11.30;2.92;;;;;;;30.71;39.70;98163.20;4115855;84;21646;-85
2021/06/21 14:38:14;;;;;;;7.62;2.77;;;;;;;30.78;40.07;98159.80;4113539;84;21042;-84
2021/06/21 14:44:15;;;;;;;12.18;3.08;;;;;;;30.76;40.68;98170.11;4026419;87;21154;-81
2021/06/21 14:50:18;;;;;;;6.05;2.58;;;;;;;30.74;41.05;98169.84;4051188;87;21093;-81
2021/06/21 14:56:21;;;;;;;8.30;2.77;;;;;;;30.68;40.91;98163.48;4123972;85;21611;-82
2021/06/21 15:02:24;;;;;;;8.20;2.50;;;;;;;30.64;41.12;98170.06;4132906;84;21102;-81
2021/06/21 15:08:25;;;;;;;7.30;2.87;;;;;;;30.67;41.37;98174.65;4116562;85;21033;-84
2021/06/21 15:14:27;;;;;;;14.23;2.58;;;;;;;30.69;41.64;98168.61;4170968;84;21434;-81
2021/06/21 15:20:32;;;;;;;9.73;2.22;;;;;;;30.68;41.92;98162.82;4182133;83;21499;-80
2021/06/21 15:26:34;;;;;;;6.90;2.50;;;;;;;30.63;41.88;98161.48;4186185;84;21014;-80
2021/06/21 15:32:36;;;;;;;6.87;2.47;;;;;;;30.55;42.19;98171.20;4180445;84;21087;-80
2021/06/21 15:38:41;;;;;;;8.25;2.60;;;;;;;30.45;42.02;98172.19;4151715;84;21078;-80
2021/06/21 15:44:43;;;;;;;11.63;2.42;;;;;;;30.33;42.22;98175.66;4179234;84;21111;-81
2021/06/21 15:50:44;;;;;;;5.72;2.37;;;;;;;30.23;42.43;98165.98;4178363;84;21065;-81
2021/06/21 15:56:46;;;;;;;11.38;2.52;;;;;;;30.08;42.93;98172.00;4088842;86;21499;-81
2021/06/21 16:02:47;;;;;;;5.83;2.12;;;;;;;29.94;42.95;98166.09;4163808;83;21030;-82
2021/06/21 16:08:49;;;;;;;6.03;2.67;;;;;;;29.85;43.17;98172.05;4177685;84;21142;-83
2021/06/21 16:14:52;;;;;;;7.03;3.20;;;;;;;29.75;43.73;98171.48;4173595;84;20994;-81
2021/06/21 16:20:54;;;;;;;3.90;2.65;;;;;;;29.61;43.97;98179.64;4129932;83;21000;-80
2021/06/21 16:26:56;;;;;;;6.42;2.55;;;;;;;29.51;44.44;98179.18;4170458;85;22299;-79
2021/06/21 16:32:58;;;;;;;9.05;2.60;;;;;;;29.35;44.98;98170.17;4181085;84;21109;-80
2021/06/21 16:39:00;;;;;;;9.20;2.40;;;;;;;29.25;45.34;98167.55;4174198;83;21061;-82
2021/06/21 16:45:02;;;;;;;6.85;3.12;;;;;;;29.13;45.60;98173.77;4153471;85;20986;-80
2021/06/21 16:51:05;;;;;;;6.87;2.65;;;;;;;29.04;45.83;98189.64;4140765;85;21524;-80
2021/06/21 16:57:07;;;;;;;5.90;2.90;;;;;;;28.92;46.26;98198.66;4154435;85;21033;-78
2021/06/21 17:03:08;;;;;;;7.12;2.65;;;;;;;28.72;46.58;98201.80;4065060;81;10000309;-80
2021/06/21 17:09:48;;;;;;;6.50;2.83;;;;;;;28.58;47.11;98206.41;4147162;83;21063;-79
2021/06/21 17:15:57;;;;;;;10.63;3.17;;;;;;;28.45;47.39;98201.17;4156209;83;21006;-79
2021/06/21 17:21:57;;;;;;;5.17;2.90;;;;;;;28.29;47.50;98193.51;4108970;85;21069;-80
2021/06/21 17:28:00;;;;;;;5.65;3.20;;;;;;;28.17;47.75;98198.39;4119020;85;21042;-80
2021/06/21 17:34:02;;;;;;;4.95;2.90;;;;;;;28.06;48.07;98217.31;4121131;85;21086;-80
2021/06/21 17:40:05;;;;;;;5.75;3.15;;;;;;;27.96;48.44;98228.67;4073132;85;21084;-79
2021/06/21 17:46:06;;;;;;;6.37;3.17;;;;;;;27.82;48.76;98217.00;4110533;86;21010;-79
2021/06/21 17:52:07;;;;;;;8.68;3.02;;;;;;;27.70;49.15;98229.52;4068787;85;21024;-79
2021/06/21 17:58:15;;;;;;;8.93;3.20;;;;;;;27.53;49.53;98220.39;4065509;86;21607;-78
2021/06/21 18:05:04;;;;;;;12.47;3.55;;;;;;;27.37;50.00;98225.35;4012308;83;9999741;-79
2021/06/21 18:11:29;;;;;;;5.28;3.30;;;;;;;27.27;50.42;98219.03;3934630;88;21103;-80
2021/06/21 18:17:30;;;;;;;6.58;3.67;;;;;;;27.08;51.02;98223.52;3975498;88;21609;-79
2021/06/21 18:23:31;;;;;;;7.08;2.90;;;;;;;26.84;51.57;98219.73;3975228;87;21598;-78
2021/06/21 18:29:33;;;;;;;10.65;3.37;;;;;;;26.67;52.17;98218.84;4036693;85;22042;-79
2021/06/21 18:35:35;;;;;;;8.08;3.25;;;;;;;26.49;52.74;98226.87;4186805;84;21017;-77
2021/06/21 18:41:36;;;;;;;5.58;3.50;;;;;;;26.35;53.30;98229.19;4174816;84;21046;-81
2021/06/21 18:47:39;;;;;;;12.58;3.95;;;;;;;26.20;53.90;98234.19;4169463;85;20978;-79
2021/06/21 18:53:40;;;;;;;9.23;2.98;;;;;;;26.21;54.63;98235.71;4176898;84;21468;-79
2021/06/21 18:59:43;;;;;;;7.72;3.75;;;;;;;26.18;55.00;98243.09;4169374;84;20938;-80
2021/06/21 19:12:24;;;;;;;21.70;4.70;;;;;;;25.89;55.68;98255.92;4130740;83;21029;-80
2021/06/21 19:18:26;;;;;;;9.98;4.17;;;;;;;25.74;56.17;98250.44;4124770;85;21054;-80
2021/06/21 19:24:29;;;;;;;7.25;4.35;;;;;;;25.65;56.48;98248.42;4074550;84;21912;-78
2021/06/21 19:30:31;;;;;;;8.75;4.22;;;;;;;25.61;57.20;98255.64;4062231;85;21042;-78
2021/06/21 19:36:32;;;;;;;9.28;3.75;;;;;;;25.50;57.76;98268.75;4081734;85;20992;-77
2021/06/21 19:42:34;;;;;;;9.35;4.75;;;;;;;25.48;58.17;98268.49;4151832;85;21074;-78
2021/06/21 19:48:37;;;;;;;11.45;5.25;;;;;;;25.37;58.39;98263.51;4068410;85;20996;-78
2021/06/21 19:54:38;;;;;;;12.70;6.28;;;;;;;25.23;58.78;98262.17;4157765;85;20970;-78
2021/06/21 20:00:42;;;;;;;10.75;6.42;;;;;;;25.11;59.02;98261.25;4121837;85;21006;-78
2021/06/21 20:06:44;;;;;;;11.10;6.40;;;;;;;24.96;59.46;98256.98;3996699;82;10000208;-79
2021/06/21 20:12:46;;;;;;;11.53;5.78;;;;;;;24.83;59.91;98248.91;4116794;84;21065;-79
2021/06/21 20:18:52;;;;;;;11.78;6.40;;;;;;;24.68;60.65;98239.81;4127595;85;21009;-78
2021/06/21 20:25:04;;;;;;;13.03;6.83;;;;;;;24.65;60.83;98236.53;4091015;85;21032;-78
2021/06/21 20:31:05;;;;;;;12.75;7.33;;;;;;;24.44;61.59;98240.55;4153342;84;21053;-79
2021/06/21 20:37:07;;;;;;;17.35;8.28;;;;;;;24.23;62.06;98250.91;4125491;85;21100;-79
2021/06/21 20:43:12;;;;;;;16.90;8.65;;;;;;;24.17;62.53;98244.45;4129193;85;20997;-79
2021/06/21 20:49:16;;;;;;;19.27;7.55;;;;;;;23.98;62.94;98239.53;4104648;85;21064;-78
2021/06/21 20:55:21;;;;;;;15.45;7.87;;;;;;;23.86;63.66;98248.34;4114432;85;22154;-78
2021/06/21 21:01:26;;;;;;;16.50;6.33;;;;;;;23.67;64.27;98262.34;4114109;85;21019;-78
2021/06/21 21:07:27;;;;;;;17.37;5.55;;;;;;;23.78;64.55;98277.92;4106279;84;21054;-82
2021/06/21 21:13:30;;;;;;;17.67;7.30;;;;;;;23.69;65.42;98270.25;4122424;84;22179;-79
2021/06/21 21:19:35;;;;;;;12.35;7.00;;;;;;;23.57;65.40;98269.90;4105240;85;21666;-79
2021/06/21 21:25:36;;;;;;;15.85;7.20;;;;;;;23.53;65.81;98278.45;4110250;84;21079;-80
2021/06/21 21:31:38;;;;;;;13.58;7.20;;;;;;;23.39;66.11;98275.01;4130450;85;21931;-79
2021/06/21 21:37:42;;;;;;;12.88;7.28;;;;;;;23.49;66.47;98278.50;4119354;85;21063;-79
2021/06/21 21:43:44;;;;;;;15.50;8.43;;;;;;;23.45;66.58;98277.28;4100090;85;22348;-79
2021/06/21 21:49:46;;;;;;;14.55;7.85;;;;;;;23.35;66.75;98278.59;4131024;84;21648;-79
2021/06/21 21:55:47;;;;;;;14.55;7.80;;;;;;;23.31;67.06;98257.69;4131338;85;21321;-79
2021/06/21 22:01:49;;;;;;;15.50;7.60;;;;;;;23.18;66.89;98248.91;4120416;85;21070;-79
2021/06/21 22:07:52;;;;;;;12.88;7.65;;;;;;;23.08;67.04;98249.47;4115665;84;21044;-78
2021/06/21 22:13:54;;;;;;;12.53;7.87;;;;;;;23.03;66.98;98253.69;4121607;84;21120;-78
2021/06/21 22:19:56;;;;;;;10.98;7.15;;;;;;;22.93;67.12;98249.41;4101460;84;21109;-79
2021/06/21 22:25:57;;;;;;;11.22;7.25;;;;;;;22.87;66.93;98262.47;4119186;85;21084;-78
2021/06/21 22:31:59;;;;;;;11.68;7.30;;;;;;;22.73;66.90;98256.20;4114106;84;21021;-80
2021/06/21 22:38:03;;;;;;;13.32;8.35;;;;;;;22.61;66.89;98257.81;4123859;84;21619;-78
2021/06/21 22:44:05;;;;;;;11.70;7.30;;;;;;;22.46;66.95;98263.27;4113938;85;21031;-78
2021/06/21 22:50:12;;;;;;;13.60;6.95;;;;;;;22.16;67.57;98266.34;4126117;85;21139;-79
2021/06/21 22:56:13;;;;;;;11.68;7.87;;;;;;;22.22;67.95;98272.20;4119587;84;21508;-78
2021/06/21 23:02:15;;;;;;;12.20;7.72;;;;;;;22.04;68.06;98264.50;4130975;84;21072;-78
2021/06/21 23:08:16;;;;;;;15.40;7.20;;;;;;;22.01;68.59;98283.55;4119236;85;21058;-78
2021/06/21 23:14:17;;;;;;;14.45;7.55;;;;;;;21.91;68.96;98270.26;4117170;83;21073;-78
2021/06/21 23:20:19;;;;;;;12.13;7.70;;;;;;;21.92;69.11;98258.50;4125680;85;21088;-78
2021/06/21 23:26:23;;;;;;;13.50;7.90;;;;;;;21.69;68.94;98252.93;4125256;85;21087;-78
2021/06/21 23:32:33;;;;;;;14.18;8.05;;;;;;;21.47;69.30;98243.37;4117066;85;21037;-79
2021/06/21 23:38:35;;;;;;;16.50;7.40;;;;;;;21.30;69.72;98243.53;4050735;86;21066;-78
2021/06/21 23:44:38;;;;;;;12.70;8.13;;;;;;;21.08;70.77;98242.15;4077410;86;21117;-78
2021/06/21 23:50:41;;;;;;;10.48;8.23;;;;;;;21.00;70.81;98231.92;4046826;87;21582;-79
2021/06/21 23:56:43;;;;;;;12.55;8.13;;;;;;;20.87;71.34;98241.62;4029795;86;21137;-78
